createdAt,value
2023-05-14T00:01:01.951Z,15.44
2023-05-14T00:03:28.423Z,14.98
2023-05-14T00:05:54.842Z,14.17
2023-05-14T00:08:21.275Z,15.06
2023-05-14T00:10:47.628Z,14.34
2023-05-14T00:13:13.979Z,14.55
2023-05-14T00:15:41.769Z,14.77
2023-05-14T00:18:08.288Z,14.68
2023-05-14T00:20:34.724Z,14.50
2023-05-14T00:23:01.130Z,14.76
2023-05-14T00:25:28.188Z,15.01
2023-05-14T00:27:54.563Z,14.68
2023-05-14T00:30:22.523Z,14.67
2023-05-14T00:32:50.553Z,15.02
2023-05-14T00:35:17.025Z,14.77
2023-05-14T00:37:43.429Z,14.92
2023-05-14T00:40:10.986Z,14.93
2023-05-14T00:42:37.396Z,15.13
2023-05-14T00:45:04.805Z,15.15
2023-05-14T00:47:31.600Z,14.93
2023-05-14T00:49:59.308Z,14.60
2023-05-14T00:52:25.749Z,14.41
2023-05-14T00:54:52.152Z,14.74
2023-05-14T00:57:18.746Z,14.51
2023-05-14T00:59:45.282Z,14.63
2023-05-14T01:02:11.666Z,14.68
2023-05-14T01:04:38.610Z,14.76
2023-05-14T01:07:16.719Z,14.50
2023-05-14T01:09:49.735Z,14.63
2023-05-14T01:12:21.161Z,14.56
2023-05-14T01:14:56.705Z,14.24
2023-05-14T01:17:26.937Z,14.25
2023-05-14T01:19:54.953Z,14.80
2023-05-14T01:22:22.625Z,14.51
2023-05-14T01:24:49.096Z,14.35
2023-05-14T01:27:18.021Z,14.01
2023-05-14T01:29:49.727Z,14.30
2023-05-14T01:32:17.575Z,14.19
2023-05-14T01:34:47.056Z,14.19
2023-05-14T01:37:14.243Z,13.92
2023-05-14T01:39:42.478Z,13.90
2023-05-14T01:42:09.593Z,14.25
2023-05-14T01:44:36.406Z,13.91
2023-05-14T01:47:02.772Z,14.08
2023-05-14T01:49:29.129Z,14.11
2023-05-14T01:51:55.653Z,14.09
2023-05-14T01:54:21.995Z,14.05
2023-05-14T01:56:49.692Z,14.01
2023-05-14T01:59:16.080Z,13.70
2023-05-14T02:01:42.504Z,13.91
2023-05-14T02:04:08.939Z,13.76
2023-05-14T02:06:35.509Z,13.84
2023-05-14T02:09:02.184Z,13.73
2023-05-14T02:11:28.552Z,13.85
2023-05-14T02:13:56.247Z,13.53
2023-05-14T02:16:22.744Z,13.79
2023-05-14T02:18:49.195Z,13.81
2023-05-14T02:21:15.556Z,13.93
2023-05-14T02:23:42.337Z,13.88
2023-05-14T02:26:09.240Z,13.55
2023-05-14T02:28:35.617Z,13.51
2023-05-14T02:31:03.442Z,13.19
2023-05-14T02:33:29.972Z,13.48
2023-05-14T02:35:56.418Z,13.46
2023-05-14T02:38:23.269Z,13.41
2023-05-14T02:40:49.626Z,13.07
2023-05-14T02:43:15.991Z,13.39
2023-05-14T02:45:42.364Z,13.24
2023-05-14T02:48:10.196Z,13.51
2023-05-14T02:50:36.604Z,13.48
2023-05-14T02:53:03.046Z,13.15
2023-05-14T02:55:29.474Z,13.24
2023-05-14T02:57:55.831Z,13.41
2023-05-14T03:00:22.684Z,13.46
2023-05-14T03:02:49.714Z,13.42
2023-05-14T03:05:17.895Z,13.19
2023-05-14T03:07:44.275Z,13.02
2023-05-14T03:10:10.791Z,13.15
2023-05-14T03:12:37.220Z,13.08
2023-05-14T03:15:04.089Z,12.98
2023-05-14T03:17:30.501Z,13.33
2023-05-14T03:19:56.954Z,12.90
2023-05-14T03:22:25.091Z,13.27
2023-05-14T03:24:51.489Z,13.10
2023-05-14T03:27:17.858Z,13.39
2023-05-14T03:29:44.211Z,13.60
2023-05-14T03:32:10.630Z,13.33
2023-05-14T03:34:37.078Z,13.40
2023-05-14T03:37:03.836Z,13.04
2023-05-14T03:39:31.514Z,12.85
2023-05-14T03:41:57.905Z,13.04
2023-05-14T03:44:24.313Z,13.12
2023-05-14T03:46:50.674Z,12.84
2023-05-14T03:49:17.212Z,12.63
2023-05-14T03:51:43.656Z,13.07
2023-05-14T03:54:10.041Z,13.01
2023-05-14T03:56:37.709Z,12.88
2023-05-14T03:59:04.059Z,13.05
2023-05-14T04:01:30.467Z,13.13
2023-05-14T04:03:56.981Z,13.12
2023-05-14T04:06:23.582Z,13.03
2023-05-14T04:08:49.978Z,12.94
2023-05-14T04:11:16.383Z,13.23
2023-05-14T04:13:44.055Z,12.71
2023-05-14T04:16:10.423Z,12.58
2023-05-14T04:18:36.949Z,13.18
2023-05-14T04:21:03.603Z,13.40
2023-05-14T04:23:29.977Z,13.35
2023-05-14T04:25:56.343Z,13.41
2023-05-14T04:28:22.680Z,13.71
2023-05-14T04:30:50.348Z,13.70
2023-05-14T04:33:16.729Z,13.31
2023-05-14T04:35:43.935Z,13.01
2023-05-14T04:38:10.291Z,12.76
2023-05-14T04:40:37.029Z,12.75
2023-05-14T04:43:03.421Z,13.21
2023-05-14T04:45:30.553Z,13.07
2023-05-14T04:47:59.721Z,12.62
2023-05-14T04:50:26.270Z,12.87
2023-05-14T04:52:52.790Z,12.68
2023-05-14T04:55:19.187Z,12.98
2023-05-14T04:57:45.533Z,12.91
2023-05-14T05:00:12.957Z,12.78
2023-05-14T05:02:39.453Z,12.82
2023-05-14T05:05:07.790Z,12.93
2023-05-14T05:07:34.157Z,13.25
2023-05-14T05:10:00.653Z,13.93
2023-05-14T05:12:27.200Z,13.68
2023-05-14T05:14:53.544Z,13.69
2023-05-14T05:17:19.921Z,13.73
2023-05-14T05:19:46.360Z,13.68
2023-05-14T05:22:15.289Z,13.80
2023-05-14T05:24:42.056Z,14.16
2023-05-14T05:27:08.426Z,14.21
2023-05-14T05:29:35.134Z,14.23
2023-05-14T05:32:01.590Z,14.45
2023-05-14T05:34:28.059Z,14.45
2023-05-14T05:36:54.481Z,14.16
2023-05-14T05:39:22.237Z,14.05
2023-05-14T05:41:48.601Z,14.29
2023-05-14T05:44:14.979Z,14.11
2023-05-14T05:46:41.589Z,14.09
2023-05-14T05:49:08.013Z,14.46
2023-05-14T05:51:34.353Z,14.80
2023-05-14T05:54:00.802Z,14.74
2023-05-14T05:56:28.518Z,14.88
2023-05-14T05:58:54.869Z,14.81
2023-05-14T06:01:21.439Z,15.09
2023-05-14T06:03:48.724Z,15.10
2023-05-14T06:06:15.293Z,15.49
2023-05-14T06:08:41.712Z,15.49
2023-05-14T06:11:08.101Z,16.01
2023-05-14T06:13:35.789Z,15.88
2023-05-14T06:16:02.198Z,15.82
2023-05-14T06:18:28.623Z,15.53
2023-05-14T06:20:55.021Z,15.35
2023-05-14T06:23:21.385Z,16.03
2023-05-14T06:25:50.657Z,16.23
2023-05-14T06:28:17.309Z,16.15
2023-05-14T06:30:45.080Z,16.61
2023-05-14T06:33:11.470Z,16.93
2023-05-14T06:35:37.914Z,16.56
2023-05-14T06:38:04.372Z,17.22
2023-05-14T06:40:30.786Z,18.53
2023-05-14T06:42:57.174Z,21.82
2023-05-14T06:45:26.239Z,20.55
2023-05-14T06:47:54.057Z,21.45
2023-05-14T06:50:20.557Z,20.41
2023-05-14T06:52:47.124Z,22.75
2023-05-14T06:55:13.529Z,24.35
2023-05-14T06:57:40.818Z,22.44
2023-05-14T07:00:08.573Z,20.26
2023-05-14T07:02:35.034Z,20.22
2023-05-14T07:05:02.849Z,21.47
2023-05-14T07:07:29.457Z,23.04
2023-05-14T07:09:55.832Z,23.53
2023-05-14T07:12:22.251Z,19.77
2023-05-14T07:14:48.649Z,19.84
2023-05-14T07:17:15.108Z,19.68
2023-05-14T07:19:41.508Z,21.99
2023-05-14T07:22:09.216Z,23.81
2023-05-14T07:24:35.570Z,28.86
2023-05-14T07:27:02.029Z,28.28
2023-05-14T07:29:28.430Z,22.56
2023-05-14T07:31:54.931Z,25.10
2023-05-14T07:34:21.450Z,25.21
2023-05-14T07:36:48.080Z,22.44
2023-05-14T07:39:15.829Z,21.55
2023-05-14T07:41:42.219Z,21.17
2023-05-14T07:44:08.957Z,20.57
2023-05-14T07:46:36.529Z,25.23
2023-05-14T07:49:02.976Z,28.49
2023-05-14T07:51:29.492Z,22.51
2023-05-14T07:53:55.955Z,23.18
2023-05-14T07:56:23.718Z,22.93
2023-05-14T07:58:50.336Z,21.44
2023-05-14T08:01:17.050Z,20.01
2023-05-14T08:03:43.548Z,19.63
2023-05-14T08:06:09.998Z,19.30
2023-05-14T08:08:36.379Z,19.83
2023-05-14T08:11:02.944Z,19.95
2023-05-14T08:13:30.856Z,19.77
2023-05-14T08:15:57.389Z,19.97
2023-05-14T08:18:23.798Z,19.61
2023-05-14T08:20:50.197Z,19.60
2023-05-14T08:23:16.573Z,19.21
2023-05-14T08:25:42.933Z,19.70
2023-05-14T08:28:09.337Z,19.23
2023-05-14T08:30:37.079Z,19.21
2023-05-14T08:33:03.597Z,20.78
2023-05-14T08:35:30.223Z,20.56
2023-05-14T08:37:56.594Z,20.42
2023-05-14T08:40:23.381Z,21.07
2023-05-14T08:42:51.145Z,21.85
2023-05-14T08:45:20.357Z,21.27
2023-05-14T08:47:49.626Z,20.15
2023-05-14T08:50:17.472Z,19.73
2023-05-14T08:52:44.326Z,20.39
2023-05-14T08:55:12.160Z,20.04
2023-05-14T08:57:38.857Z,19.43
2023-05-14T09:00:06.401Z,20.18
2023-05-14T09:02:33.229Z,20.39
2023-05-14T09:05:02.548Z,19.71
2023-05-14T09:07:29.071Z,19.82
2023-05-14T09:09:55.755Z,21.46
2023-05-14T09:12:22.399Z,20.27
2023-05-14T09:14:50.226Z,20.47
2023-05-14T09:17:17.467Z,19.59
2023-05-14T09:19:45.422Z,21.93
2023-05-14T09:22:15.115Z,23.09
2023-05-14T09:24:41.563Z,20.20
2023-05-14T09:27:14.894Z,19.54
2023-05-14T09:29:41.309Z,19.89
2023-05-14T09:32:07.930Z,21.04
2023-05-14T09:34:35.375Z,21.17
2023-05-14T09:37:03.273Z,20.31
2023-05-14T09:39:32.227Z,21.52
2023-05-14T09:41:58.807Z,20.33
2023-05-14T09:44:25.805Z,20.69
2023-05-14T09:46:53.088Z,20.47
2023-05-14T09:49:20.295Z,20.56
2023-05-14T09:51:46.721Z,20.38
2023-05-14T09:54:13.115Z,20.18
2023-05-14T09:56:40.878Z,20.00
2023-05-14T09:59:07.264Z,20.38
2023-05-14T10:01:33.707Z,20.14
2023-05-14T10:04:02.346Z,19.55
2023-05-14T10:06:32.932Z,20.10
2023-05-14T10:09:02.703Z,20.35
2023-05-14T10:11:31.653Z,20.79
2023-05-14T10:14:03.385Z,20.08
2023-05-14T10:16:33.716Z,20.11
2023-05-14T10:19:05.664Z,21.86
2023-05-14T10:21:35.975Z,22.44
2023-05-14T10:24:02.970Z,21.52
2023-05-14T10:26:29.934Z,20.46
2023-05-14T10:28:56.728Z,20.72
2023-05-14T10:31:44.581Z,21.81
2023-05-14T10:34:31.565Z,20.31
2023-05-14T10:36:59.323Z,21.27
2023-05-14T10:39:40.114Z,21.63
2023-05-14T10:42:06.837Z,22.03
2023-05-14T10:44:35.640Z,22.24
2023-05-14T10:47:03.829Z,21.91
2023-05-14T10:49:42.721Z,22.99
2023-05-14T10:52:11.550Z,22.21
2023-05-14T10:54:38.341Z,21.28
2023-05-14T10:57:10.830Z,21.42
2023-05-14T10:59:37.189Z,21.87
2023-05-14T11:02:18.460Z,22.44
2023-05-14T11:04:52.238Z,22.15
2023-05-14T11:07:23.990Z,23.33
2023-05-14T11:09:50.819Z,22.66
2023-05-14T11:12:17.869Z,21.84
2023-05-14T11:14:44.686Z,23.55
2023-05-14T11:17:13.459Z,22.07
2023-05-14T11:19:43.147Z,23.52
2023-05-14T11:22:09.729Z,24.42
2023-05-14T11:24:36.099Z,24.47
2023-05-14T11:27:02.469Z,24.52
2023-05-14T11:29:29.236Z,23.83
2023-05-14T11:31:56.156Z,22.96
2023-05-14T11:34:24.185Z,21.85
2023-05-14T11:36:50.578Z,21.74
2023-05-14T11:39:18.002Z,22.47
2023-05-14T11:41:44.681Z,22.91
2023-05-14T11:44:11.268Z,22.92
2023-05-14T11:46:37.727Z,22.75
2023-05-14T11:49:04.172Z,23.00
2023-05-14T11:51:32.172Z,22.25
2023-05-14T11:53:58.520Z,22.43
2023-05-14T11:56:24.886Z,21.81
2023-05-14T11:58:56.701Z,21.14
2023-05-14T12:01:23.130Z,21.49
2023-05-14T12:03:50.612Z,22.59
2023-05-14T12:06:18.085Z,21.96
2023-05-14T12:08:47.615Z,22.21
2023-05-14T12:11:13.996Z,23.45
2023-05-14T12:13:40.378Z,23.79
2023-05-14T12:16:06.832Z,23.73
2023-05-14T12:18:33.558Z,23.21
2023-05-14T12:21:02.887Z,23.88
2023-05-14T12:23:30.533Z,24.07
2023-05-14T12:26:03.013Z,22.98
2023-05-14T12:28:29.700Z,22.54
2023-05-14T12:30:56.614Z,21.68
2023-05-14T12:33:23.165Z,21.00
2023-05-14T12:35:49.705Z,20.68
2023-05-14T12:38:16.040Z,22.07
2023-05-14T12:40:42.485Z,21.72
2023-05-14T12:43:10.214Z,21.60
2023-05-14T12:45:36.760Z,22.22
2023-05-14T12:48:03.614Z,21.74
2023-05-14T12:50:29.976Z,22.11
2023-05-14T12:52:56.357Z,22.77
2023-05-14T12:55:22.725Z,21.74
2023-05-14T12:57:49.177Z,22.95
2023-05-14T13:00:17.637Z,22.59
2023-05-14T13:02:44.515Z,22.81
2023-05-14T13:05:11.479Z,21.90
2023-05-14T13:07:37.915Z,23.16
2023-05-14T13:10:05.293Z,22.37
2023-05-14T13:12:31.631Z,21.59
2023-05-14T13:14:58.016Z,21.96
2023-05-14T13:17:25.950Z,22.07
2023-05-14T13:19:52.339Z,21.70
2023-05-14T13:22:18.678Z,22.56
2023-05-14T13:24:45.054Z,22.28
2023-05-14T13:27:11.662Z,23.48
2023-05-14T13:29:38.031Z,22.37
2023-05-14T13:32:05.044Z,21.41
2023-05-14T13:34:32.789Z,21.94
2023-05-14T13:36:59.197Z,21.87
2023-05-14T13:39:25.968Z,21.35
2023-05-14T13:41:52.642Z,21.15
2023-05-14T13:44:19.004Z,21.82
2023-05-14T13:46:45.463Z,20.81
2023-05-14T13:49:11.909Z,20.31
2023-05-14T13:51:39.604Z,20.07
2023-05-14T13:54:06.056Z,20.34
2023-05-14T13:56:32.476Z,20.19
2023-05-14T13:58:58.952Z,20.00
2023-05-14T14:01:25.533Z,19.81
2023-05-14T14:03:51.948Z,19.96
2023-05-14T14:06:18.305Z,20.12
2023-05-14T14:08:45.992Z,20.51
2023-05-14T14:11:12.585Z,20.72
2023-05-14T14:13:39.255Z,20.85
2023-05-14T14:16:05.911Z,20.52
2023-05-14T14:18:32.505Z,20.47
2023-05-14T14:20:58.986Z,20.66
2023-05-14T14:23:25.505Z,20.45
2023-05-14T14:25:53.221Z,20.36
2023-05-14T14:28:19.604Z,20.23
2023-05-14T14:30:46.076Z,19.95
2023-05-14T14:33:12.615Z,20.74
2023-05-14T14:35:38.997Z,20.26
2023-05-14T14:38:05.512Z,20.22
2023-05-14T14:40:32.973Z,20.03
2023-05-14T14:43:00.820Z,20.54
2023-05-14T14:45:27.282Z,20.91
2023-05-14T14:48:25.284Z,21.35
2023-05-14T14:50:52.389Z,20.89
2023-05-14T14:53:18.812Z,20.52
2023-05-14T14:55:45.177Z,20.13
2023-05-14T14:58:11.837Z,20.80
2023-05-14T15:00:39.018Z,20.97
2023-05-14T15:03:05.690Z,21.08
2023-05-14T15:05:33.516Z,20.95
2023-05-14T15:07:59.852Z,20.70
2023-05-14T15:10:27.482Z,20.55
2023-05-14T15:12:54.018Z,20.28
2023-05-14T15:15:21.601Z,20.58
2023-05-14T15:17:48.029Z,20.58
2023-05-14T15:20:14.517Z,20.96
2023-05-14T15:22:42.271Z,20.39
2023-05-14T15:25:08.813Z,20.43
2023-05-14T15:27:35.299Z,20.46
2023-05-14T15:30:02.210Z,20.97
2023-05-14T15:32:28.784Z,21.28
2023-05-14T15:34:55.379Z,20.98
2023-05-14T15:37:23.847Z,20.81
2023-05-14T15:39:51.527Z,20.24
2023-05-14T15:42:18.004Z,20.45
2023-05-14T15:44:44.468Z,20.71
2023-05-14T15:47:10.878Z,21.32
2023-05-14T15:49:37.575Z,21.19
2023-05-14T15:52:04.340Z,20.67
2023-05-14T15:54:30.722Z,21.10
2023-05-14T15:56:58.430Z,21.28
2023-05-14T15:59:25.001Z,20.74
2023-05-14T16:01:51.421Z,20.82
2023-05-14T16:04:17.975Z,20.95
2023-05-14T16:06:44.452Z,21.33
2023-05-14T16:09:10.857Z,21.53
2023-05-14T16:11:37.294Z,21.27
2023-05-14T16:14:05.036Z,21.66
2023-05-14T16:16:31.574Z,21.19
2023-05-14T16:18:58.623Z,21.13
2023-05-14T16:21:25.025Z,21.23
2023-05-14T16:23:51.377Z,21.18
2023-05-14T16:26:17.845Z,20.94
2023-05-14T16:28:44.178Z,20.45
2023-05-14T16:31:11.883Z,21.71
2023-05-14T16:33:38.256Z,21.38
2023-05-14T16:36:04.965Z,21.26
2023-05-14T16:38:31.381Z,21.89
2023-05-14T16:40:57.816Z,21.65
2023-05-14T16:43:24.215Z,21.92
2023-05-14T16:45:50.633Z,21.58
2023-05-14T16:48:18.492Z,21.60
2023-05-14T16:50:44.899Z,21.28
2023-05-14T16:53:11.290Z,20.83
2023-05-14T16:55:37.925Z,20.97
2023-05-14T16:58:04.285Z,20.85
2023-05-14T17:00:30.665Z,20.58
2023-05-14T17:02:57.087Z,20.66
2023-05-14T17:05:25.101Z,21.04
2023-05-14T17:07:51.631Z,20.89
2023-05-14T17:10:18.245Z,20.94
2023-05-14T17:12:44.714Z,21.13
2023-05-14T17:15:11.758Z,20.67
2023-05-14T17:17:38.269Z,20.86
2023-05-14T17:20:05.557Z,20.90
2023-05-14T17:22:33.432Z,21.13
2023-05-14T17:24:59.880Z,21.22
2023-05-14T17:27:26.310Z,20.80
2023-05-14T17:29:52.678Z,20.39
2023-05-14T17:32:19.133Z,20.41
2023-05-14T17:34:45.534Z,20.48
2023-05-14T17:37:12.104Z,20.12
2023-05-14T17:39:39.853Z,20.39
2023-05-14T17:42:06.847Z,20.35
2023-05-14T17:44:33.262Z,21.28
2023-05-14T17:46:59.881Z,20.68
2023-05-14T17:49:26.341Z,21.01
2023-05-14T17:51:52.689Z,20.79
2023-05-14T17:54:19.071Z,20.45
2023-05-14T17:56:46.957Z,20.87
2023-05-14T17:59:13.446Z,20.21
2023-05-14T18:01:39.962Z,20.60
2023-05-14T18:04:06.444Z,20.29
2023-05-14T18:06:33.884Z,20.21
2023-05-14T18:09:00.301Z,21.04
2023-05-14T18:11:26.647Z,20.57
2023-05-14T18:13:54.426Z,20.65
2023-05-14T18:16:20.942Z,20.37
2023-05-14T18:18:47.492Z,20.77
2023-05-14T18:21:13.923Z,21.30
2023-05-14T18:23:40.362Z,21.02
2023-05-14T18:26:06.875Z,21.21
2023-05-14T18:28:33.506Z,21.35
2023-05-14T18:31:01.295Z,21.27
2023-05-14T18:33:27.644Z,21.18
2023-05-14T18:35:54.107Z,20.92
2023-05-14T18:38:20.536Z,21.05
2023-05-14T18:40:46.899Z,20.72
2023-05-14T18:43:13.267Z,20.60
2023-05-14T18:45:39.785Z,20.42
2023-05-14T18:48:07.889Z,20.56
2023-05-14T18:50:34.297Z,20.25
2023-05-14T18:53:00.856Z,20.06
2023-05-14T18:55:27.457Z,19.90
2023-05-14T18:57:53.940Z,19.86
2023-05-14T19:00:20.585Z,20.07
2023-05-14T19:02:47.043Z,19.65
2023-05-14T19:05:15.105Z,19.98
2023-05-14T19:07:41.562Z,19.80
2023-05-14T19:10:09.238Z,19.67
2023-05-14T19:12:35.634Z,19.58
2023-05-14T19:15:02.120Z,19.54
2023-05-14T19:17:28.891Z,19.31
2023-05-14T19:19:55.303Z,19.66
2023-05-14T19:22:23.040Z,19.39
2023-05-14T19:27:16.790Z,19.37
2023-05-14T19:29:43.469Z,19.51
2023-05-14T19:32:10.468Z,19.03
2023-05-14T19:34:36.940Z,19.10
2023-05-14T19:37:03.612Z,18.96
2023-05-14T19:39:31.403Z,19.00
2023-05-14T19:41:57.846Z,18.95
2023-05-14T19:44:24.264Z,18.99
2023-05-14T19:46:50.999Z,19.21
2023-05-14T19:49:17.420Z,18.79
2023-05-14T19:51:43.780Z,18.67
2023-05-14T19:54:10.159Z,18.58
2023-05-14T19:56:37.905Z,18.68
2023-05-14T19:59:04.339Z,18.81
2023-05-14T20:01:30.867Z,18.86
2023-05-14T20:03:57.615Z,18.94
2023-05-14T20:06:24.110Z,19.09
2023-05-14T20:08:50.582Z,18.51
2023-05-14T20:11:17.009Z,18.72
2023-05-14T20:13:45.052Z,18.83
2023-05-14T20:16:11.695Z,18.54
2023-05-14T20:18:38.191Z,18.21
2023-05-14T20:21:04.627Z,18.28
2023-05-14T20:23:30.992Z,18.44
2023-05-14T20:25:57.349Z,18.68
2023-05-14T20:28:23.819Z,18.75
2023-05-14T20:30:51.532Z,18.54
2023-05-14T20:33:18.040Z,18.15
2023-05-14T20:35:44.414Z,18.44
2023-05-14T20:38:10.832Z,18.37
2023-05-14T20:40:37.178Z,18.55
2023-05-14T20:43:03.543Z,18.48
2023-05-14T20:45:30.015Z,18.26
2023-05-14T20:47:57.712Z,18.11
2023-05-14T20:50:24.137Z,18.06
2023-05-14T20:52:50.484Z,18.07
2023-05-14T20:55:17.175Z,18.47
2023-05-14T20:57:43.709Z,18.03
2023-05-14T21:00:11.581Z,18.32
2023-05-14T21:02:38.157Z,18.24
2023-05-14T21:05:06.958Z,18.13
2023-05-14T21:07:33.361Z,18.03
2023-05-14T21:09:59.728Z,17.97
2023-05-14T21:12:26.202Z,17.95
2023-05-14T21:14:52.579Z,18.03
2023-05-14T21:17:19.132Z,17.82
2023-05-14T21:19:45.834Z,17.88
2023-05-14T21:22:13.626Z,17.56
2023-05-14T21:24:39.970Z,17.82
2023-05-14T21:27:06.389Z,17.57
2023-05-14T21:29:32.920Z,17.47
2023-05-14T21:31:59.363Z,17.53
2023-05-14T21:34:25.764Z,17.63
2023-05-14T21:36:52.179Z,17.32
2023-05-14T21:39:19.849Z,17.33
2023-05-14T21:41:46.242Z,17.52
2023-05-14T21:44:12.624Z,17.16
2023-05-14T21:46:39.045Z,17.49
2023-05-14T21:49:05.682Z,17.59
2023-05-14T21:51:32.090Z,17.32
2023-05-14T21:53:58.495Z,17.41
2023-05-14T21:56:26.264Z,17.56
2023-05-14T21:58:52.627Z,17.33
2023-05-14T22:01:19.059Z,17.14
2023-05-14T22:03:45.570Z,17.06
2023-05-14T22:06:11.998Z,17.41
2023-05-14T22:08:38.357Z,16.95
2023-05-14T22:11:04.724Z,16.85
2023-05-14T22:13:32.458Z,17.05
2023-05-14T22:16:09.329Z,16.85
2023-05-14T22:18:39.818Z,16.99
2023-05-14T22:21:06.277Z,17.33
2023-05-14T22:23:32.651Z,17.06
2023-05-14T22:25:59.381Z,17.06
2023-05-14T22:28:25.918Z,16.89
2023-05-14T22:30:53.680Z,16.74
2023-05-14T22:33:20.058Z,17.04
2023-05-14T22:35:46.447Z,16.91
2023-05-14T22:38:13.002Z,16.75
2023-05-14T22:40:39.587Z,16.84
2023-05-14T22:43:05.957Z,16.41
2023-05-14T22:45:32.333Z,16.77
2023-05-14T22:48:00.218Z,16.75
2023-05-14T22:50:26.717Z,16.14
2023-05-14T22:52:53.137Z,16.75
2023-05-14T22:55:19.745Z,16.69
2023-05-14T22:57:46.246Z,15.96
2023-05-14T23:00:13.533Z,16.34
2023-05-14T23:02:39.981Z,16.46
2023-05-14T23:05:09.045Z,16.37
2023-05-14T23:07:35.472Z,16.40
2023-05-14T23:10:02.153Z,16.13
2023-05-14T23:12:28.624Z,15.85
2023-05-14T23:14:55.054Z,15.93
2023-05-14T23:17:21.513Z,16.15
2023-05-14T23:19:47.963Z,16.40
2023-05-14T23:22:15.820Z,16.15
2023-05-14T23:24:42.173Z,15.77
2023-05-14T23:27:08.641Z,15.11
2023-05-14T23:29:35.051Z,15.74
2023-05-14T23:32:02.237Z,16.28
2023-05-14T23:34:28.691Z,15.75
2023-05-14T23:36:55.166Z,15.88
2023-05-14T23:39:23.106Z,16.01
2023-05-14T23:41:49.450Z,15.97
2023-05-14T23:44:15.801Z,16.18
2023-05-14T23:46:42.236Z,15.90
2023-05-14T23:49:08.621Z,15.48
2023-05-14T23:51:35.000Z,15.53
2023-05-14T23:54:01.375Z,15.48
2023-05-14T23:56:29.409Z,15.52
2023-05-14T23:58:56.086Z,16.14
